sensor_id;sensor_type;location;lat;lon;timestamp;pressure;altitude;pressure_sealevel;temperature;humidity
39491;BME280;25175;50.140;18.990;2023-04-07T00:01:53;98489.00;;;1.59;66.54
39491;BME280;25175;50.140;18.990;2023-04-07T00:04:58;98487.09;;;1.61;66.29
39491;BME280;25175;50.140;18.990;2023-04-07T00:08:04;98491.44;;;1.60;66.31
39491;BME280;25175;50.140;18.990;2023-04-07T00:11:09;98486.00;;;1.63;66.51
39491;BME280;25175;50.140;18.990;2023-04-07T00:14:13;98482.44;;;1.64;66.22
39491;BME280;25175;50.140;18.990;2023-04-07T00:17:21;98476.59;;;1.62;66.40
39491;BME280;25175;50.140;18.990;2023-04-07T00:20:25;98477.13;;;1.66;66.35
39491;BME280;25175;50.140;18.990;2023-04-07T00:23:30;98479.53;;;1.67;66.24
39491;BME280;25175;50.140;18.990;2023-04-07T00:26:35;98472.44;;;1.69;66.21
39491;BME280;25175;50.140;18.990;2023-04-07T00:29:40;98472.81;;;1.74;65.94
39491;BME280;25175;50.140;18.990;2023-04-07T00:32:49;98463.72;;;1.70;65.97
39491;BME280;25175;50.140;18.990;2023-04-07T00:35:55;98460.16;;;1.71;66.13
39491;BME280;25175;50.140;18.990;2023-04-07T00:39:00;98455.00;;;1.71;66.19
39491;BME280;25175;50.140;18.990;2023-04-07T00:42:05;98464.50;;;1.71;66.11
39491;BME280;25175;50.140;18.990;2023-04-07T00:45:10;98458.69;;;1.69;66.25
39491;BME280;25175;50.140;18.990;2023-04-07T00:48:18;98448.50;;;1.67;66.16
39491;BME280;25175;50.140;18.990;2023-04-07T00:51:22;98444.97;;;1.68;66.22
39491;BME280;25175;50.140;18.990;2023-04-07T00:54:29;98441.41;;;1.69;65.97
39491;BME280;25175;50.140;18.990;2023-04-07T00:57:34;98453.38;;;1.70;66.20
39491;BME280;25175;50.140;18.990;2023-04-07T01:00:44;98442.22;;;1.70;65.87
39491;BME280;25175;50.140;18.990;2023-04-07T01:04:00;98432.97;;;1.67;66.04
39491;BME280;25175;50.140;18.990;2023-04-07T01:07:16;98444.16;;;1.68;65.92
39491;BME280;25175;50.140;18.990;2023-04-07T01:10:43;98436.53;;;1.66;66.27
39491;BME280;25175;50.140;18.990;2023-04-07T01:13:59;98433.94;;;1.66;66.27
39491;BME280;25175;50.140;18.990;2023-04-07T01:17:26;98453.84;;;1.66;66.23
39491;BME280;25175;50.140;18.990;2023-04-07T01:20:36;98432.97;;;1.67;66.21
39491;BME280;25175;50.140;18.990;2023-04-07T01:24:02;98432.19;;;1.67;66.11
39491;BME280;25175;50.140;18.990;2023-04-07T01:27:35;98428.78;;;1.66;66.43
39491;BME280;25175;50.140;18.990;2023-04-07T01:30:52;98430.72;;;1.64;66.30
39491;BME280;25175;50.140;18.990;2023-04-07T01:34:03;98433.94;;;1.66;66.12
39491;BME280;25175;50.140;18.990;2023-04-07T01:37:10;98431.38;;;1.66;66.28
39491;BME280;25175;50.140;18.990;2023-04-07T01:40:17;98438.97;;;1.68;66.34
39491;BME280;25175;50.140;18.990;2023-04-07T01:43:25;98367.13;;;1.28;66.22
39491;BME280;25175;50.140;18.990;2023-04-07T01:46:34;98429.59;;;1.67;66.43
39491;BME280;25175;50.140;18.990;2023-04-07T01:49:39;98433.31;;;1.64;66.43
39491;BME280;25175;50.140;18.990;2023-04-07T01:52:46;98427.03;;;1.67;66.28
39491;BME280;25175;50.140;18.990;2023-04-07T01:55:52;98418.44;;;1.66;66.48
39491;BME280;25175;50.140;18.990;2023-04-07T01:58:58;98414.88;;;1.67;66.30
39491;BME280;25175;50.140;18.990;2023-04-07T02:02:06;98417.47;;;1.67;66.31
39491;BME280;25175;50.140;18.990;2023-04-07T02:05:16;98415.34;;;1.63;66.21
39491;BME280;25175;50.140;18.990;2023-04-07T02:08:27;98418.44;;;1.66;66.42
39491;BME280;25175;50.140;18.990;2023-04-07T02:11:36;98417.63;;;1.66;66.29
39491;BME280;25175;50.140;18.990;2023-04-07T02:14:46;98416.34;;;1.70;66.43
39491;BME280;25175;50.140;18.990;2023-04-07T02:17:56;98412.66;;;1.72;66.29
39491;BME280;25175;50.140;18.990;2023-04-07T02:21:03;98413.63;;;1.71;66.55
39491;BME280;25175;50.140;18.990;2023-04-07T02:24:12;98408.66;;;1.78;66.34
39491;BME280;25175;50.140;18.990;2023-04-07T02:27:16;98423.19;;;1.79;66.06
39491;BME280;25175;50.140;18.990;2023-04-07T02:30:22;98400.53;;;1.73;66.24
39491;BME280;25175;50.140;18.990;2023-04-07T02:33:29;98419.63;;;1.80;66.11
39491;BME280;25175;50.140;18.990;2023-04-07T02:36:34;98309.63;;;1.01;65.87
39491;BME280;25175;50.140;18.990;2023-04-07T02:39:41;98427.19;;;1.73;65.99
39491;BME280;25175;50.140;18.990;2023-04-07T02:42:46;98412.47;;;1.66;66.18
39491;BME280;25175;50.140;18.990;2023-04-07T02:45:51;98424.78;;;1.72;66.18
39491;BME280;25175;50.140;18.990;2023-04-07T02:48:58;98415.22;;;1.72;66.21
39491;BME280;25175;50.140;18.990;2023-04-07T02:52:03;98417.16;;;1.70;66.28
39491;BME280;25175;50.140;18.990;2023-04-07T02:55:09;98416.34;;;1.70;66.28
39491;BME280;25175;50.140;18.990;2023-04-07T02:58:13;98399.38;;;1.67;66.38
39491;BME280;25175;50.140;18.990;2023-04-07T03:01:20;98394.38;;;1.66;66.61
39491;BME280;25175;50.140;18.990;2023-04-07T03:04:28;98387.88;;;1.62;66.61
39491;BME280;25175;50.140;18.990;2023-04-07T03:07:35;98383.00;;;1.59;66.29
39491;BME280;25175;50.140;18.990;2023-04-07T03:10:40;98397.25;;;1.63;66.67
39491;BME280;25175;50.140;18.990;2023-04-07T03:13:45;98399.00;;;1.62;66.65
39491;BME280;25175;50.140;18.990;2023-04-07T03:16:49;98400.81;;;1.62;66.81
39491;BME280;25175;50.140;18.990;2023-04-07T03:19:59;98399.34;;;1.59;66.86
39491;BME280;25175;50.140;18.990;2023-04-07T03:23:07;98394.91;;;1.52;66.79
39491;BME280;25175;50.140;18.990;2023-04-07T03:26:12;98405.41;;;1.50;66.94
39491;BME280;25175;50.140;18.990;2023-04-07T03:29:17;98404.25;;;1.45;67.12
39491;BME280;25175;50.140;18.990;2023-04-07T03:32:23;98398.72;;;1.40;67.38
39491;BME280;25175;50.140;18.990;2023-04-07T03:35:30;98399.09;;;1.45;67.52
39491;BME280;25175;50.140;18.990;2023-04-07T03:38:35;98405.72;;;1.47;67.62
39491;BME280;25175;50.140;18.990;2023-04-07T03:41:40;98393.16;;;1.52;67.54
39491;BME280;25175;50.140;18.990;2023-04-07T03:44:45;98401.41;;;1.56;67.36
39491;BME280;25175;50.140;18.990;2023-04-07T03:47:50;98404.50;;;1.59;67.35
39491;BME280;25175;50.140;18.990;2023-04-07T03:50:59;98398.38;;;1.60;67.40
39491;BME280;25175;50.140;18.990;2023-04-07T03:54:06;98397.41;;;1.61;67.20
39491;BME280;25175;50.140;18.990;2023-04-07T03:57:15;98391.94;;;1.64;67.30
39491;BME280;25175;50.140;18.990;2023-04-07T04:00:22;98403.06;;;1.65;67.19
39491;BME280;25175;50.140;18.990;2023-04-07T04:03:40;98401.44;;;1.64;67.06
39491;BME280;25175;50.140;18.990;2023-04-07T04:07:00;98407.31;;;1.66;66.97
39491;BME280;25175;50.140;18.990;2023-04-07T04:10:19;98408.91;;;1.67;67.22
39491;BME280;25175;50.140;18.990;2023-04-07T04:13:26;98387.06;;;1.61;66.96
39491;BME280;25175;50.140;18.990;2023-04-07T04:16:36;98400.47;;;1.65;67.11
39491;BME280;25175;50.140;18.990;2023-04-07T04:19:50;98365.34;;;1.46;67.35
39491;BME280;25175;50.140;18.990;2023-04-07T04:23:09;98395.97;;;1.67;67.13
39491;BME280;25175;50.140;18.990;2023-04-07T04:26:15;98400.03;;;1.69;67.31
39491;BME280;25175;50.140;18.990;2023-04-07T04:29:22;98397.59;;;1.68;67.10
39491;BME280;25175;50.140;18.990;2023-04-07T04:32:29;98399.34;;;1.59;67.36
39491;BME280;25175;50.140;18.990;2023-04-07T04:35:34;98402.88;;;1.58;67.15
39491;BME280;25175;50.140;18.990;2023-04-07T04:38:52;98410.81;;;1.65;67.46
39491;BME280;25175;50.140;18.990;2023-04-07T04:41:57;98419.91;;;1.69;67.22
39491;BME280;25175;50.140;18.990;2023-04-07T04:45:08;98410.88;;;1.73;66.97
39491;BME280;25175;50.140;18.990;2023-04-07T04:48:17;98414.78;;;1.77;67.08
39491;BME280;25175;50.140;18.990;2023-04-07T04:51:22;98417.06;;;1.80;67.29
39491;BME280;25175;50.140;18.990;2023-04-07T04:54:34;98420.97;;;1.84;66.88
39491;BME280;25175;50.140;18.990;2023-04-07T04:57:39;98419.84;;;1.86;66.85
39491;BME280;25175;50.140;18.990;2023-04-07T05:00:47;98423.22;;;1.87;66.84
39491;BME280;25175;50.140;18.990;2023-04-07T05:03:58;98400.75;;;1.79;66.79
39491;BME280;25175;50.140;18.990;2023-04-07T05:07:05;98414.19;;;1.91;67.16
39491;BME280;25175;50.140;18.990;2023-04-07T05:10:12;98420.00;;;1.93;66.64
39491;BME280;25175;50.140;18.990;2023-04-07T05:13:23;98412.72;;;1.88;66.69
39491;BME280;25175;50.140;18.990;2023-04-07T05:16:34;98414.34;;;1.89;66.74
39491;BME280;25175;50.140;18.990;2023-04-07T05:19:41;98409.34;;;1.88;66.74
39491;BME280;25175;50.140;18.990;2023-04-07T05:22:54;98409.66;;;1.85;66.98
39491;BME280;25175;50.140;18.990;2023-04-07T05:26:08;98416.09;;;1.81;66.99
39491;BME280;25175;50.140;18.990;2023-04-07T05:29:14;98408.31;;;1.81;67.30
39491;BME280;25175;50.140;18.990;2023-04-07T05:32:19;98413.50;;;1.81;67.06
39491;BME280;25175;50.140;18.990;2023-04-07T05:35:24;98417.06;;;1.80;67.11
39491;BME280;25175;50.140;18.990;2023-04-07T05:38:32;98420.13;;;1.75;67.42
39491;BME280;25175;50.140;18.990;2023-04-07T05:41:46;98414.44;;;1.72;67.72
39491;BME280;25175;50.140;18.990;2023-04-07T05:44:52;98418.50;;;1.74;67.57
39491;BME280;25175;50.140;18.990;2023-04-07T05:47:58;98438.09;;;1.85;67.19
39491;BME280;25175;50.140;18.990;2023-04-07T05:51:13;98426.00;;;1.85;67.02
39491;BME280;25175;50.140;18.990;2023-04-07T05:54:18;98418.38;;;1.84;67.03
39491;BME280;25175;50.140;18.990;2023-04-07T05:57:28;98421.44;;;1.79;67.08
39491;BME280;25175;50.140;18.990;2023-04-07T06:00:35;98436.47;;;1.84;67.36
39491;BME280;25175;50.140;18.990;2023-04-07T06:03:46;98421.09;;;1.82;67.23
39491;BME280;25175;50.140;18.990;2023-04-07T06:06:54;98413.50;;;1.81;67.22
39491;BME280;25175;50.140;18.990;2023-04-07T06:10:00;98426.59;;;1.79;67.43
39491;BME280;25175;50.140;18.990;2023-04-07T06:13:07;98416.25;;;1.79;67.39
39491;BME280;25175;50.140;18.990;2023-04-07T06:16:12;98401.84;;;1.77;67.45
39491;BME280;25175;50.140;18.990;2023-04-07T06:19:16;98402.78;;;1.76;67.56
39491;BME280;25175;50.140;18.990;2023-04-07T06:22:22;98396.84;;;1.75;67.81
39491;BME280;25175;50.140;18.990;2023-04-07T06:25:26;98406.00;;;1.70;67.93
39491;BME280;25175;50.140;18.990;2023-04-07T06:28:34;98408.28;;;1.73;67.73
39491;BME280;25175;50.140;18.990;2023-04-07T06:31:38;98403.63;;;1.76;67.90
39491;BME280;25175;50.140;18.990;2023-04-07T06:34:44;98413.69;;;1.79;67.85
39491;BME280;25175;50.140;18.990;2023-04-07T06:37:49;98403.16;;;1.81;67.98
39491;BME280;25175;50.140;18.990;2023-04-07T06:40:54;98415.78;;;1.84;67.88
39491;BME280;25175;50.140;18.990;2023-04-07T06:44:01;98429.22;;;1.87;67.80
39491;BME280;25175;50.140;18.990;2023-04-07T06:47:06;98429.72;;;1.91;67.88
39491;BME280;25175;50.140;18.990;2023-04-07T06:50:10;98427.47;;;1.96;67.62
39491;BME280;25175;50.140;18.990;2023-04-07T06:53:16;98430.41;;;2.01;67.69
39491;BME280;25175;50.140;18.990;2023-04-07T06:56:21;98423.28;;;2.03;67.43
39491;BME280;25175;50.140;18.990;2023-04-07T06:59:30;98428.19;;;2.06;67.68
39491;BME280;25175;50.140;18.990;2023-04-07T07:02:34;98435.00;;;2.15;67.42
39491;BME280;25175;50.140;18.990;2023-04-07T07:05:39;98428.53;;;2.19;67.56
39491;BME280;25175;50.140;18.990;2023-04-07T07:08:44;98440.00;;;2.16;67.06
39491;BME280;25175;50.140;18.990;2023-04-07T07:11:49;98431.94;;;2.19;67.33
39491;BME280;25175;50.140;18.990;2023-04-07T07:14:56;98424.19;;;2.19;66.94
39491;BME280;25175;50.140;18.990;2023-04-07T07:18:01;98422.72;;;2.17;67.36
39491;BME280;25175;50.140;18.990;2023-04-07T07:21:06;98419.31;;;2.16;67.15
39491;BME280;25175;50.140;18.990;2023-04-07T07:24:11;98434.03;;;2.16;67.21
39491;BME280;25175;50.140;18.990;2023-04-07T07:27:16;98431.09;;;2.11;67.16
39491;BME280;25175;50.140;18.990;2023-04-07T07:30:23;98432.72;;;2.12;67.64
39491;BME280;25175;50.140;18.990;2023-04-07T07:33:28;98439.53;;;2.13;67.37
39491;BME280;25175;50.140;18.990;2023-04-07T07:36:33;98421.38;;;2.05;67.35
39491;BME280;25175;50.140;18.990;2023-04-07T07:39:37;98439.84;;;2.10;67.04
39491;BME280;25175;50.140;18.990;2023-04-07T07:42:42;98439.66;;;2.11;67.75
39491;BME280;25175;50.140;18.990;2023-04-07T07:45:50;98440.16;;;2.15;67.89
39491;BME280;25175;50.140;18.990;2023-04-07T07:48:56;98445.69;;;2.20;67.60
39491;BME280;25175;50.140;18.990;2023-04-07T07:52:00;98462.19;;;2.19;67.54
39491;BME280;25175;50.140;18.990;2023-04-07T07:55:06;98465.59;;;2.19;67.52
39491;BME280;25175;50.140;18.990;2023-04-07T07:58:10;98451.19;;;2.17;67.37
39491;BME280;25175;50.140;18.990;2023-04-07T08:01:18;98470.78;;;2.19;67.64
39491;BME280;25175;50.140;18.990;2023-04-07T08:04:23;98458.59;;;2.12;67.38
39491;BME280;25175;50.140;18.990;2023-04-07T08:07:28;98438.09;;;2.18;67.42
39491;BME280;25175;50.140;18.990;2023-04-07T08:10:33;98424.81;;;2.13;67.59
39491;BME280;25175;50.140;18.990;2023-04-07T08:13:38;98417.41;;;2.18;67.66
39491;BME280;25175;50.140;18.990;2023-04-07T08:16:47;98408.16;;;2.16;67.87
39491;BME280;25175;50.140;18.990;2023-04-07T08:19:53;98410.91;;;2.14;67.87
39491;BME280;25175;50.140;18.990;2023-04-07T08:22:57;98445.03;;;2.18;68.35
39491;BME280;25175;50.140;18.990;2023-04-07T08:26:03;98444.06;;;2.19;67.80
39491;BME280;25175;50.140;18.990;2023-04-07T08:29:07;98428.88;;;2.16;67.95
39491;BME280;25175;50.140;18.990;2023-04-07T08:32:15;98428.53;;;2.19;68.16
39491;BME280;25175;50.140;18.990;2023-04-07T08:35:19;98433.56;;;2.20;68.02
39491;BME280;25175;50.140;18.990;2023-04-07T08:38:24;98436.63;;;2.16;67.93
39491;BME280;25175;50.140;18.990;2023-04-07T08:41:32;98438.41;;;2.15;68.30
39491;BME280;25175;50.140;18.990;2023-04-07T08:44:42;98451.03;;;2.18;68.33
39491;BME280;25175;50.140;18.990;2023-04-07T08:47:54;98436.31;;;2.19;68.32
39491;BME280;25175;50.140;18.990;2023-04-07T08:51:04;98441.03;;;2.23;68.10
39491;BME280;25175;50.140;18.990;2023-04-07T08:54:13;98439.88;;;2.26;67.89
39491;BME280;25175;50.140;18.990;2023-04-07T08:57:19;98428.41;;;2.28;68.40
39491;BME280;25175;50.140;18.990;2023-04-07T09:00:24;98423.06;;;2.30;68.48
39491;BME280;25175;50.140;18.990;2023-04-07T09:03:33;98413.84;;;2.27;68.66
39491;BME280;25175;50.140;18.990;2023-04-07T09:06:38;98420.69;;;2.36;68.72
39491;BME280;25175;50.140;18.990;2023-04-07T09:09:43;98436.56;;;2.41;68.31
39491;BME280;25175;50.140;18.990;2023-04-07T09:12:48;98433.13;;;2.41;68.31
39491;BME280;25175;50.140;18.990;2023-04-07T09:15:53;98433.00;;;2.42;68.35
39491;BME280;25175;50.140;18.990;2023-04-07T09:19:00;98427.31;;;2.47;68.42
39491;BME280;25175;50.140;18.990;2023-04-07T09:22:05;98427.81;;;2.50;68.00
39491;BME280;25175;50.140;18.990;2023-04-07T09:25:14;98410.50;;;2.51;68.08
39491;BME280;25175;50.140;18.990;2023-04-07T09:28:23;98406.63;;;2.47;68.04
39491;BME280;25175;50.140;18.990;2023-04-07T09:31:44;98412.13;;;2.44;68.20
39491;BME280;25175;50.140;18.990;2023-04-07T09:34:58;98420.19;;;2.41;68.59
39491;BME280;25175;50.140;18.990;2023-04-07T09:38:07;98439.00;;;2.51;68.49
39491;BME280;25175;50.140;18.990;2023-04-07T09:41:15;98408.53;;;2.29;68.09
39491;BME280;25175;50.140;18.990;2023-04-07T09:44:20;98430.59;;;2.49;67.96
39491;BME280;25175;50.140;18.990;2023-04-07T09:47:27;98413.59;;;2.46;68.31
39491;BME280;25175;50.140;18.990;2023-04-07T09:50:37;98412.75;;;2.46;68.54
39491;BME280;25175;50.140;18.990;2023-04-07T09:53:47;98413.59;;;2.46;68.71
39491;BME280;25175;50.140;18.990;2023-04-07T09:56:54;98421.03;;;2.49;68.66
39491;BME280;25175;50.140;18.990;2023-04-07T10:00:04;98406.31;;;2.50;68.22
39491;BME280;25175;50.140;18.990;2023-04-07T10:03:14;98417.78;;;2.55;68.01
39491;BME280;25175;50.140;18.990;2023-04-07T10:06:22;98420.88;;;2.51;68.25
39491;BME280;25175;50.140;18.990;2023-04-07T10:09:28;98425.56;;;2.47;68.39
39491;BME280;25175;50.140;18.990;2023-04-07T10:12:36;98421.50;;;2.45;68.32
39491;BME280;25175;50.140;18.990;2023-04-07T10:15:42;98437.06;;;2.53;68.52
39491;BME280;25175;50.140;18.990;2023-04-07T10:18:48;98429.13;;;2.54;68.31
39491;BME280;25175;50.140;18.990;2023-04-07T10:21:56;98438.38;;;2.57;68.36
39491;BME280;25175;50.140;18.990;2023-04-07T10:25:06;98405.97;;;2.45;68.60
39491;BME280;25175;50.140;18.990;2023-04-07T10:28:15;98432.88;;;2.60;68.43
39491;BME280;25175;50.140;18.990;2023-04-07T10:31:23;98408.75;;;2.51;68.54
39491;BME280;25175;50.140;18.990;2023-04-07T10:34:55;98427.41;;;2.71;68.70
39491;BME280;25175;50.140;18.990;2023-04-07T10:38:13;98427.88;;;2.74;68.39
39491;BME280;25175;50.140;18.990;2023-04-07T10:41:33;98418.66;;;2.80;68.43
39491;BME280;25175;50.140;18.990;2023-04-07T10:44:47;98417.50;;;2.66;68.37
39491;BME280;25175;50.140;18.990;2023-04-07T10:48:08;98427.09;;;2.90;68.54
39491;BME280;25175;50.140;18.990;2023-04-07T10:51:16;98423.50;;;2.91;68.41
39491;BME280;25175;50.140;18.990;2023-04-07T10:54:23;98425.13;;;2.92;68.49
39491;BME280;25175;50.140;18.990;2023-04-07T10:57:29;98430.34;;;3.00;68.43
39491;BME280;25175;50.140;18.990;2023-04-07T11:00:33;98426.28;;;3.05;67.94
39491;BME280;25175;50.140;18.990;2023-04-07T11:03:40;98432.28;;;3.06;67.80
39491;BME280;25175;50.140;18.990;2023-04-07T11:06:55;98434.88;;;3.06;67.96
39491;BME280;25175;50.140;18.990;2023-04-07T11:10:11;98428.72;;;3.07;67.98
39491;BME280;25175;50.140;18.990;2023-04-07T11:13:16;98415.28;;;3.03;67.93
39491;BME280;25175;50.140;18.990;2023-04-07T11:16:35;98413.63;;;3.10;68.48
39491;BME280;25175;50.140;18.990;2023-04-07T11:19:50;98409.13;;;3.12;68.23
39491;BME280;25175;50.140;18.990;2023-04-07T11:22:59;98409.91;;;3.13;68.34
39491;BME280;25175;50.140;18.990;2023-04-07T11:26:08;98408.16;;;3.13;68.41
39491;BME280;25175;50.140;18.990;2023-04-07T11:29:15;98407.00;;;3.16;68.60
39491;BME280;25175;50.140;18.990;2023-04-07T11:32:22;98409.25;;;3.19;68.04
39491;BME280;25175;50.140;18.990;2023-04-07T11:35:30;98405.88;;;3.18;68.30
39491;BME280;25175;50.140;18.990;2023-04-07T11:38:36;98407.81;;;3.16;68.72
39491;BME280;25175;50.140;18.990;2023-04-07T11:41:48;98399.88;;;3.18;68.59
39491;BME280;25175;50.140;18.990;2023-04-07T11:44:54;98410.09;;;3.19;68.49
39491;BME280;25175;50.140;18.990;2023-04-07T11:47:59;98408.13;;;3.21;68.74
39491;BME280;25175;50.140;18.990;2023-04-07T11:51:05;98409.09;;;3.20;68.50
39491;BME280;25175;50.140;18.990;2023-04-07T11:54:19;98400.22;;;3.15;68.20
39491;BME280;25175;50.140;18.990;2023-04-07T11:57:28;98414.13;;;3.14;68.88
39491;BME280;25175;50.140;18.990;2023-04-07T12:00:33;98411.53;;;3.14;68.60
39491;BME280;25175;50.140;18.990;2023-04-07T12:03:54;98402.31;;;3.11;68.80
39491;BME280;25175;50.140;18.990;2023-04-07T12:07:07;98355.34;;;2.82;68.45
39491;BME280;25175;50.140;18.990;2023-04-07T12:10:18;98400.22;;;3.15;68.84
39491;BME280;25175;50.140;18.990;2023-04-07T12:13:27;98392.09;;;3.18;68.41
39491;BME280;25175;50.140;18.990;2023-04-07T12:16:31;98396.97;;;3.21;68.61
39491;BME280;25175;50.140;18.990;2023-04-07T12:19:41;98404.41;;;3.24;68.85
39491;BME280;25175;50.140;18.990;2023-04-07T12:22:46;98409.28;;;3.27;68.75
39491;BME280;25175;50.140;18.990;2023-04-07T12:25:51;98403.94;;;3.28;68.07
39491;BME280;25175;50.140;18.990;2023-04-07T12:28:58;98407.97;;;3.31;68.37
39491;BME280;25175;50.140;18.990;2023-04-07T12:32:05;98409.25;;;3.35;68.55
39491;BME280;25175;50.140;18.990;2023-04-07T12:35:10;98413.31;;;3.37;68.56
39491;BME280;25175;50.140;18.990;2023-04-07T12:38:15;98417.69;;;3.37;68.20
39491;BME280;25175;50.140;18.990;2023-04-07T12:41:19;98396.44;;;3.33;68.45
39491;BME280;25175;50.140;18.990;2023-04-07T12:44:27;98411.84;;;3.35;68.30
39491;BME280;25175;50.140;18.990;2023-04-07T12:47:31;98413.66;;;3.34;68.36
39491;BME280;25175;50.140;18.990;2023-04-07T12:50:37;98415.25;;;3.35;68.29
39491;BME280;25175;50.140;18.990;2023-04-07T12:53:41;98400.19;;;3.31;68.29
39491;BME280;25175;50.140;18.990;2023-04-07T12:56:48;98404.06;;;3.35;68.44
39491;BME280;25175;50.140;18.990;2023-04-07T12:59:55;98353.88;;;3.04;68.10
39491;BME280;25175;50.140;18.990;2023-04-07T13:03:00;98400.50;;;3.36;68.33
39491;BME280;25175;50.140;18.990;2023-04-07T13:06:05;98359.06;;;3.12;68.63
39491;BME280;25175;50.140;18.990;2023-04-07T13:09:11;98399.53;;;3.37;68.74
39491;BME280;25175;50.140;18.990;2023-04-07T13:12:16;98397.59;;;3.39;68.87
39491;BME280;25175;50.140;18.990;2023-04-07T13:15:24;98403.88;;;3.44;68.66
39491;BME280;25175;50.140;18.990;2023-04-07T13:18:28;98401.28;;;3.44;68.71
39491;BME280;25175;50.140;18.990;2023-04-07T13:21:33;98402.75;;;3.47;68.70
39491;BME280;25175;50.140;18.990;2023-04-07T13:24:38;98411.81;;;3.51;68.59
39491;BME280;25175;50.140;18.990;2023-04-07T13:27:43;98412.47;;;3.53;68.56
39491;BME280;25175;50.140;18.990;2023-04-07T13:30:50;98406.94;;;3.56;67.98
39491;BME280;25175;50.140;18.990;2023-04-07T13:33:55;98416.19;;;3.58;68.40
39491;BME280;25175;50.140;18.990;2023-04-07T13:37:00;98411.00;;;3.58;68.23
39491;BME280;25175;50.140;18.990;2023-04-07T13:40:07;98419.41;;;3.60;68.12
39491;BME280;25175;50.140;18.990;2023-04-07T13:43:13;98418.94;;;3.57;68.07
39491;BME280;25175;50.140;18.990;2023-04-07T13:46:24;98422.34;;;3.57;68.46
39491;BME280;25175;50.140;18.990;2023-04-07T13:49:48;98420.56;;;3.58;68.45
39491;BME280;25175;50.140;18.990;2023-04-07T13:53:03;98432.38;;;3.60;68.28
39491;BME280;25175;50.140;18.990;2023-04-07T13:56:56;98423.00;;;3.59;68.08
39491;BME280;25175;50.140;18.990;2023-04-07T14:00:02;98436.78;;;3.60;68.15
39491;BME280;25175;50.140;18.990;2023-04-07T14:03:13;98441.97;;;3.60;68.30
39491;BME280;25175;50.140;18.990;2023-04-07T14:06:18;98431.75;;;3.58;68.37
39491;BME280;25175;50.140;18.990;2023-04-07T14:09:24;98335.09;;;2.86;68.30
39491;BME280;25175;50.140;18.990;2023-04-07T14:12:29;98433.84;;;3.63;68.45
39491;BME280;25175;50.140;18.990;2023-04-07T14:15:34;98431.25;;;3.71;68.36
39491;BME280;25175;50.140;18.990;2023-04-07T14:18:43;98441.63;;;3.71;68.17
39491;BME280;25175;50.140;18.990;2023-04-07T14:21:49;98439.66;;;3.73;67.92
39491;BME280;25175;50.140;18.990;2023-04-07T14:24:55;98427.16;;;3.76;67.71
39491;BME280;25175;50.140;18.990;2023-04-07T14:27:59;98423.31;;;3.72;68.14
39491;BME280;25175;50.140;18.990;2023-04-07T14:31:05;98436.41;;;3.79;68.35
39491;BME280;25175;50.140;18.990;2023-04-07T14:34:12;98425.56;;;3.83;68.17
39491;BME280;25175;50.140;18.990;2023-04-07T14:37:17;98427.03;;;3.86;67.64
39491;BME280;25175;50.140;18.990;2023-04-07T14:40:24;98423.44;;;3.87;67.84
39491;BME280;25175;50.140;18.990;2023-04-07T14:43:29;98422.31;;;3.89;67.99
39491;BME280;25175;50.140;18.990;2023-04-07T14:46:34;98417.25;;;3.96;68.18
39491;BME280;25175;50.140;18.990;2023-04-07T14:49:41;98422.13;;;3.99;67.69
39491;BME280;25175;50.140;18.990;2023-04-07T14:52:46;98414.66;;;3.96;67.61
39491;BME280;25175;50.140;18.990;2023-04-07T14:55:51;98413.03;;;3.95;67.96
39491;BME280;25175;50.140;18.990;2023-04-07T14:58:56;98420.66;;;3.96;68.16
39491;BME280;25175;50.140;18.990;2023-04-07T15:02:01;98411.72;;;3.99;67.83
39491;BME280;25175;50.140;18.990;2023-04-07T15:05:09;98410.91;;;3.98;68.23
39491;BME280;25175;50.140;18.990;2023-04-07T15:08:14;98416.25;;;4.05;67.86
39491;BME280;25175;50.140;18.990;2023-04-07T15:11:19;98435.72;;;4.09;67.80
39491;BME280;25175;50.140;18.990;2023-04-07T15:14:25;98422.88;;;4.07;67.68
39491;BME280;25175;50.140;18.990;2023-04-07T15:17:29;98424.97;;;4.12;67.53
39491;BME280;25175;50.140;18.990;2023-04-07T15:20:37;98418.63;;;4.14;67.64
39491;BME280;25175;50.140;18.990;2023-04-07T15:23:42;98419.16;;;4.10;67.52
39491;BME280;25175;50.140;18.990;2023-04-07T15:26:48;98421.06;;;4.16;67.82
39491;BME280;25175;50.140;18.990;2023-04-07T15:29:53;98419.09;;;4.18;67.47
39491;BME280;25175;50.140;18.990;2023-04-07T15:32:59;98419.75;;;4.20;67.21
39491;BME280;25175;50.140;18.990;2023-04-07T15:36:08;98425.13;;;4.18;67.84
39491;BME280;25175;50.140;18.990;2023-04-07T15:39:14;98429.16;;;4.21;67.89
39491;BME280;25175;50.140;18.990;2023-04-07T15:42:18;98428.19;;;4.22;67.62
39491;BME280;25175;50.140;18.990;2023-04-07T15:45:23;98425.59;;;4.22;67.39
39491;BME280;25175;50.140;18.990;2023-04-07T15:48:28;98434.19;;;4.22;67.64
39491;BME280;25175;50.140;18.990;2023-04-07T15:51:36;98434.50;;;4.27;67.78
39491;BME280;25175;50.140;18.990;2023-04-07T15:54:40;98426.34;;;4.30;67.57
39491;BME280;25175;50.140;18.990;2023-04-07T15:57:45;98416.66;;;4.24;67.39
39491;BME280;25175;50.140;18.990;2023-04-07T16:00:52;98408.03;;;4.24;67.56
39491;BME280;25175;50.140;18.990;2023-04-07T16:03:57;98435.91;;;4.38;67.57
39491;BME280;25175;50.140;18.990;2023-04-07T16:07:04;98427.78;;;4.41;67.24
39491;BME280;25175;50.140;18.990;2023-04-07T16:10:10;98432.00;;;4.42;67.22
39491;BME280;25175;50.140;18.990;2023-04-07T16:13:17;98425.00;;;4.42;67.12
39491;BME280;25175;50.140;18.990;2023-04-07T16:16:23;98432.00;;;4.42;67.17
39491;BME280;25175;50.140;18.990;2023-04-07T16:19:27;98427.44;;;4.44;66.84
39491;BME280;25175;50.140;18.990;2023-04-07T16:22:35;98432.78;;;4.42;66.87
39491;BME280;25175;50.140;18.990;2023-04-07T16:25:39;98432.31;;;4.39;67.13
39491;BME280;25175;50.140;18.990;2023-04-07T16:28:44;98441.72;;;4.40;67.38
39491;BME280;25175;50.140;18.990;2023-04-07T16:31:50;98440.56;;;4.42;67.15
39491;BME280;25175;50.140;18.990;2023-04-07T16:34:55;98437.50;;;4.39;67.27